Airfield :







YOU CAN JOIN US ON...

 
LOGIN :

Register | Disclaimer

   EN    FR    IT 

 









Legend :    VFR   Marginal VFR   IFR   Intensive IFR   Very Intensive IFR
Visi :
Ceiling :
>= 8 km
>= 3000ft
5 to 8 km
1000 to 3000 ft
1500m to 5 km
500 to 1000 ft
800 to 1500m
200 to 500 ft
< 800m
< 200 ft
Symbols :   Thunderstorms  Fog  Heavy snow  Heavy precipitations  Wind > 20 kt







- Airport Elevation : 192 ft
- IATA code : BGR


KBGR - Bangor International

CURRENT METAR :
  • 171753Z 22007KT 10SM -RA FEW010 SCT013 OVC050 24/22 A2982 RMK AO2 RAB11 SLP093 P0000 60025 T02390222 10244 20217 56016

EXPIRED METARs :
  • 171653Z VRB04KT 10SM BKN049 OVC060 23/22 A2982 RMK AO2 RAE47 SLP096 P0000 T02330217
  • 171620Z 26005KT 10SM -RA FEW008 SCT049 OVC065 23/21 A2984 RMK AO2 P0000 T02280211
  • 171553Z 26005KT 5SM -RA BR BKN046 BKN070 OVC085 23/21 A2984 RMK AO2 SLP103 P0013 T02280211
  • 171543Z VRB03KT 3SM -RA BR BKN046 BKN055 OVC080 22/21 A2985 RMK AO2 P0013 T02220211

TAF KBGR
Valid from the 17 at 18:00 until the 18 at 18:00 UTC


171751Z 1718/1818 24007KT 6SM -SHRA VCTS OVC050CB
TEMPO 1721/1724 2SM -TSRA SCT010 OVC030CB
FM180000 28004KT P6SM VCSH BKN035
FM180200 33004KT P6SM BKN035
FM180300 34004KT P6SM BKN060
FM180600 01004KT P6SM SCT080
KZBW FIR / North America



MET'MAP, your aeronautical weather chart ! - Copyright ORBIFLY December 2007 - Disclaimer

ORBIFLY MET'MAP TEAM :

Programming & Development : Alexandra Zaïnal
Concept & Development : Baudouin d'Aumeries
Co-Development & Prog : Marc-Olivier Méhu
Technical & hardware support : Manuel Goepfert

Contact : metmap@orbifly.com




SOURCES & CREDITS :

   NOAA